Time;durP1;ratioP1;P1;durP2;ratioP2;P2;SDS_P1;SDS_P2;PMS_P1;PMS_P2;Temp;Humidity;BMP_temperature;BMP_pressure;BME280_temperature;BME280_humidity;BME280_pressure;Samples;Min_cycle;Max_cycle;Signal;HPM_P1;HPM_P2
2023/03/20 00:02:05;;;;;;;5.47;3.10;;;;;;;;;;5050988;28;20509;-78
2023/03/20 00:04:30;;;;;;;4.13;2.77;;;;;;;;;;5039091;28;20503;-79
2023/03/20 00:06:56;;;;;;;4.03;2.80;;;;;;;;;;5035761;28;20434;-78
2023/03/20 00:09:22;;;;;;;4.53;3.30;;;;;;;;;;5038865;28;20267;-78
2023/03/20 00:11:51;;;;;;;4.80;2.83;;;;;;;;;;5031445;28;20618;-78
2023/03/20 00:14:17;;;;;;;3.97;2.87;;;;;;;;;;5016648;28;20199;-78
2023/03/20 00:16:44;;;;;;;6.30;3.40;;;;;;;;;;5030621;28;20855;-78
2023/03/20 00:19:14;;;;;;;3.90;3.10;;;;;;;;;;5027065;28;20428;-78
2023/03/20 00:21:39;;;;;;;7.40;4.50;;;;;;;;;;5045102;28;20438;-79
2023/03/20 00:24:05;;;;;;;4.63;3.80;;;;;;;;;;5045243;28;20498;-78
2023/03/20 00:26:32;;;;;;;8.20;4.50;;;;;;;;;;5030774;28;20183;-78
2023/03/20 00:28:57;;;;;;;6.17;4.20;;;;;;;;;;5028386;28;20206;-79
2023/03/20 00:31:33;;;;;;;5.37;3.30;;;;;;;;;;5026148;28;20431;-78
2023/03/20 00:34:00;;;;;;;5.10;3.73;;;;;;;;;;5029854;28;20211;-78
2023/03/20 00:36:25;;;;;;;4.80;3.97;;;;;;;;;;5024993;28;20426;-78
2023/03/20 00:38:50;;;;;;;6.47;4.50;;;;;;;;;;5025319;28;20427;-79
2023/03/20 00:41:19;;;;;;;5.60;4.10;;;;;;;;;;5028365;28;20194;-79
2023/03/20 00:43:46;;;;;;;4.87;4.30;;;;;;;;;;5030044;28;20213;-79
2023/03/20 00:46:12;;;;;;;5.33;4.80;;;;;;;;;;5034722;28;21017;-79
2023/03/20 00:48:39;;;;;;;7.60;4.30;;;;;;;;;;5038032;28;20476;-79
2023/03/20 00:51:04;;;;;;;7.60;4.73;;;;;;;;;;5038387;28;20437;-79
2023/03/20 00:53:30;;;;;;;7.80;5.00;;;;;;;;;;5037329;28;20446;-79
2023/03/20 00:55:55;;;;;;;7.13;4.87;;;;;;;;;;5035292;28;21135;-79
2023/03/20 00:58:20;;;;;;;6.00;4.90;;;;;;;;;;5037001;28;20175;-79
2023/03/20 01:00:45;;;;;;;7.60;3.80;;;;;;;;;;5039656;28;20783;-80
2023/03/20 01:03:13;;;;;;;4.87;4.13;;;;;;;;;;5038970;28;20199;-79
2023/03/20 01:05:38;;;;;;;6.17;4.03;;;;;;;;;;5041800;28;20214;-79
2023/03/20 01:08:14;;;;;;;4.40;4.00;;;;;;;;;;5038989;28;20408;-79
2023/03/20 01:10:40;;;;;;;6.07;3.57;;;;;;;;;;5035389;28;20206;-79
2023/03/20 01:13:05;;;;;;;5.90;4.90;;;;;;;;;;5035805;28;20976;-79
2023/03/20 01:15:32;;;;;;;9.70;4.73;;;;;;;;;;5033489;28;20418;-79
2023/03/20 01:17:57;;;;;;;7.43;4.33;;;;;;;;;;5035533;28;20299;-79
2023/03/20 01:20:24;;;;;;;7.70;4.30;;;;;;;;;;5030962;28;20453;-79
2023/03/20 01:22:49;;;;;;;6.40;4.30;;;;;;;;;;5036409;28;20718;-79
2023/03/20 01:25:15;;;;;;;5.73;3.57;;;;;;;;;;5033186;28;20529;-79
2023/03/20 01:27:42;;;;;;;6.47;3.70;;;;;;;;;;5025474;28;20186;-79
2023/03/20 01:30:27;;;;;;;5.73;3.90;;;;;;;;;;5024685;28;20212;-78
2023/03/20 01:32:53;;;;;;;7.63;3.77;;;;;;;;;;5030024;28;20457;-79
2023/03/20 01:35:22;;;;;;;9.57;4.00;;;;;;;;;;5026406;28;20897;-78
2023/03/20 01:37:49;;;;;;;6.20;4.20;;;;;;;;;;5031470;28;20179;-78
2023/03/20 01:40:34;;;;;;;6.47;4.50;;;;;;;;;;5029230;28;20438;-79
2023/03/20 01:43:02;;;;;;;6.23;4.00;;;;;;;;;;5029305;28;20459;-79
2023/03/20 01:45:30;;;;;;;5.10;3.60;;;;;;;;;;5027294;28;20431;-79
2023/03/20 01:47:57;;;;;;;9.10;3.73;;;;;;;;;;5024254;28;20553;-78
2023/03/20 01:50:28;;;;;;;8.30;3.50;;;;;;;;;;5025640;28;20467;-78
2023/03/20 01:52:57;;;;;;;5.33;3.97;;;;;;;;;;5033912;28;20967;-79
2023/03/20 01:55:22;;;;;;;4.90;3.90;;;;;;;;;;5030804;28;20462;-78
2023/03/20 01:57:49;;;;;;;4.03;3.00;;;;;;;;;;5036022;28;20418;-79
2023/03/20 02:00:15;;;;;;;5.90;4.20;;;;;;;;;;5034430;28;20638;-79
2023/03/20 02:02:42;;;;;;;6.40;5.00;;;;;;;;;;5021423;28;20544;-79
2023/03/20 02:05:10;;;;;;;8.17;4.07;;;;;;;;;;5033934;28;20806;-79
2023/03/20 02:07:35;;;;;;;5.70;4.03;;;;;;;;;;5045947;28;20926;-78
2023/03/20 02:10:02;;;;;;;5.07;4.17;;;;;;;;;;5036859;28;21098;-79
2023/03/20 02:12:27;;;;;;;8.63;5.23;;;;;;;;;;5038241;28;20589;-79
2023/03/20 02:14:52;;;;;;;5.97;4.77;;;;;;;;;;5036777;28;20422;-79
2023/03/20 02:17:18;;;;;;;6.63;4.90;;;;;;;;;;5035248;28;20438;-79
2023/03/20 02:19:51;;;;;;;10.17;6.30;;;;;;;;;;5033969;28;20203;-78
2023/03/20 02:22:48;;;;;;;5.80;4.70;;;;;;;;;;5038048;28;20226;-80
2023/03/20 02:25:32;;;;;;;5.70;4.50;;;;;;;;;;5014727;28;20441;-79
2023/03/20 02:28:09;;;;;;;5.60;4.80;;;;;;;;;;5033297;28;20433;-79
2023/03/20 02:30:49;;;;;;;6.67;5.13;;;;;;;;;;5032987;28;20435;-78
2023/03/20 02:33:23;;;;;;;7.23;4.83;;;;;;;;;;5031085;28;20886;-79
2023/03/20 02:36:01;;;;;;;7.20;5.33;;;;;;;;;;5035818;28;20442;-78
2023/03/20 02:38:26;;;;;;;5.73;4.50;;;;;;;;;;5036579;28;20425;-79
2023/03/20 02:40:51;;;;;;;7.20;4.67;;;;;;;;;;5024787;28;20921;-79
2023/03/20 02:43:27;;;;;;;6.27;4.37;;;;;;;;;;5030298;28;20204;-78
2023/03/20 02:45:55;;;;;;;9.03;4.87;;;;;;;;;;5027840;28;20184;-78
2023/03/20 02:48:40;;;;;;;5.33;4.00;;;;;;;;;;5025437;28;20801;-78
2023/03/20 02:51:11;;;;;;;8.33;4.20;;;;;;;;;;5027793;28;20527;-78
2023/03/20 02:53:55;;;;;;;6.50;5.00;;;;;;;;;;5032493;28;20447;-79
2023/03/20 02:56:34;;;;;;;5.60;3.57;;;;;;;;;;5031220;28;20449;-78
2023/03/20 02:59:10;;;;;;;9.20;4.67;;;;;;;;;;5029829;28;20473;-79
2023/03/20 03:01:40;;;;;;;5.70;3.47;;;;;;;;;;5027709;28;20783;-79
2023/03/20 03:04:08;;;;;;;4.27;3.77;;;;;;;;;;5021767;28;20458;-78
2023/03/20 03:06:35;;;;;;;4.40;3.20;;;;;;;;;;5033333;28;20446;-79
2023/03/20 03:09:04;;;;;;;6.10;3.40;;;;;;;;;;5026234;28;20467;-78
2023/03/20 03:11:31;;;;;;;6.57;3.90;;;;;;;;;;5028441;28;20961;-78
2023/03/20 03:13:57;;;;;;;8.00;3.43;;;;;;;;;;5022825;28;22901;-78
2023/03/20 03:16:28;;;;;;;6.17;3.83;;;;;;;;;;5027632;28;20445;-78
2023/03/20 03:19:00;;;;;;;8.27;4.77;;;;;;;;;;5025499;28;20430;-78
2023/03/20 03:21:27;;;;;;;15.43;5.80;;;;;;;;;;5029540;28;20423;-78
2023/03/20 03:23:52;;;;;;;7.40;4.40;;;;;;;;;;5027342;28;20528;-78
2023/03/20 03:26:20;;;;;;;8.90;4.57;;;;;;;;;;5027925;28;20509;-79
2023/03/20 03:28:48;;;;;;;9.33;5.10;;;;;;;;;;5028609;28;20752;-78
2023/03/20 03:31:14;;;;;;;8.10;5.57;;;;;;;;;;5030328;28;20470;-78
2023/03/20 03:33:42;;;;;;;8.60;5.20;;;;;;;;;;5026198;28;20463;-79
2023/03/20 03:36:07;;;;;;;9.50;5.37;;;;;;;;;;5024299;28;20528;-78
2023/03/20 03:38:39;;;;;;;17.37;5.40;;;;;;;;;;5026269;28;20860;-79
2023/03/20 03:41:09;;;;;;;10.33;5.53;;;;;;;;;;5027570;28;20189;-79
2023/03/20 03:43:38;;;;;;;6.17;4.40;;;;;;;;;;5026126;28;20473;-79
2023/03/20 03:46:10;;;;;;;11.30;5.43;;;;;;;;;;5038344;28;20446;-79
2023/03/20 03:48:39;;;;;;;9.77;5.93;;;;;;;;;;5027413;28;20572;-79
2023/03/20 03:51:07;;;;;;;13.00;5.43;;;;;;;;;;5026374;28;20959;-80
2023/03/20 03:53:39;;;;;;;9.03;5.40;;;;;;;;;;5021532;28;20822;-79
2023/03/20 03:56:05;;;;;;;8.60;5.30;;;;;;;;;;5018470;28;20457;-78
2023/03/20 03:58:38;;;;;;;13.23;6.30;;;;;;;;;;5032220;28;20479;-79
2023/03/20 04:01:04;;;;;;;8.50;5.70;;;;;;;;;;5029074;28;20728;-79
2023/03/20 04:03:31;;;;;;;12.63;6.00;;;;;;;;;;5030919;28;20482;-79
2023/03/20 04:05:57;;;;;;;8.50;5.70;;;;;;;;;;5032955;28;20551;-79
2023/03/20 04:08:23;;;;;;;11.83;6.70;;;;;;;;;;5036269;28;20955;-79
2023/03/20 04:10:48;;;;;;;12.47;6.57;;;;;;;;;;5028946;28;20878;-79
2023/03/20 04:13:15;;;;;;;15.43;6.10;;;;;;;;;;5033599;28;20290;-78
2023/03/20 04:15:41;;;;;;;14.70;7.03;;;;;;;;;;5036102;28;20180;-79
2023/03/20 04:18:06;;;;;;;14.67;6.73;;;;;;;;;;5035642;28;20420;-78
2023/03/20 04:20:32;;;;;;;12.43;6.87;;;;;;;;;;5039637;28;20421;-79
2023/03/20 04:22:58;;;;;;;10.10;6.20;;;;;;;;;;5037626;28;20245;-79
2023/03/20 04:25:23;;;;;;;9.40;6.50;;;;;;;;;;5034269;28;20263;-79
2023/03/20 04:27:49;;;;;;;12.23;6.27;;;;;;;;;;5030478;28;20224;-79
2023/03/20 04:30:14;;;;;;;9.07;7.03;;;;;;;;;;5029425;28;20814;-79
2023/03/20 04:32:40;;;;;;;16.37;7.40;;;;;;;;;;5036829;28;20276;-79
2023/03/20 04:35:06;;;;;;;11.30;6.90;;;;;;;;;;5034730;28;20184;-78
2023/03/20 04:37:31;;;;;;;13.30;6.97;;;;;;;;;;5032298;28;20264;-78
2023/03/20 04:39:56;;;;;;;13.63;6.97;;;;;;;;;;5033892;28;20499;-79
2023/03/20 04:42:22;;;;;;;17.87;7.43;;;;;;;;;;5026528;28;20714;-78
2023/03/20 04:44:47;;;;;;;11.50;7.80;;;;;;;;;;5030290;28;20280;-78
2023/03/20 04:47:12;;;;;;;12.37;6.93;;;;;;;;;;5032024;28;20179;-78
2023/03/20 04:49:38;;;;;;;12.37;6.63;;;;;;;;;;5026851;28;20215;-78
2023/03/20 04:52:03;;;;;;;10.60;7.77;;;;;;;;;;5029328;28;20330;-79
2023/03/20 04:54:28;;;;;;;12.73;7.30;;;;;;;;;;5029160;28;20203;-79
2023/03/20 04:56:54;;;;;;;11.83;7.27;;;;;;;;;;5033304;28;20199;-80
2023/03/20 04:59:19;;;;;;;12.70;7.93;;;;;;;;;;5029487;28;20195;-79
2023/03/20 05:01:44;;;;;;;11.50;7.90;;;;;;;;;;5032282;28;20177;-79
2023/03/20 05:04:10;;;;;;;17.03;8.43;;;;;;;;;;5030363;28;20207;-79
2023/03/20 05:06:35;;;;;;;10.20;7.67;;;;;;;;;;5033689;28;20188;-79
2023/03/20 05:09:00;;;;;;;9.00;6.80;;;;;;;;;;5033543;28;20231;-79
2023/03/20 05:11:26;;;;;;;11.20;7.00;;;;;;;;;;5033719;28;20182;-79
2023/03/20 05:13:51;;;;;;;10.20;8.00;;;;;;;;;;5026322;28;20192;-79
2023/03/20 05:16:16;;;;;;;15.57;8.70;;;;;;;;;;5026215;28;20191;-79
2023/03/20 05:18:42;;;;;;;11.03;7.47;;;;;;;;;;5029048;28;20208;-79
2023/03/20 05:21:07;;;;;;;11.93;8.00;;;;;;;;;;5028920;28;20184;-79
2023/03/20 05:23:32;;;;;;;12.63;7.73;;;;;;;;;;5031102;28;20192;-79
2023/03/20 05:25:58;;;;;;;11.23;7.67;;;;;;;;;;5032986;28;20245;-79
2023/03/20 05:28:23;;;;;;;11.87;8.07;;;;;;;;;;5024873;28;21561;-78
2023/03/20 05:30:48;;;;;;;13.53;7.90;;;;;;;;;;5025371;28;20184;-78
2023/03/20 05:33:14;;;;;;;11.20;7.97;;;;;;;;;;5026950;28;20224;-75
2023/03/20 05:35:39;;;;;;;14.40;9.23;;;;;;;;;;5031102;28;20181;-78
2023/03/20 05:38:05;;;;;;;11.87;8.27;;;;;;;;;;5027659;28;20184;-78
2023/03/20 05:40:30;;;;;;;12.43;8.10;;;;;;;;;;5028702;28;20727;-79
2023/03/20 05:42:55;;;;;;;14.60;8.40;;;;;;;;;;5033112;28;20800;-77
2023/03/20 05:45:21;;;;;;;15.60;7.47;;;;;;;;;;5037434;28;20180;-78
2023/03/20 05:47:46;;;;;;;10.90;7.90;;;;;;;;;;5030922;28;20663;-78
2023/03/20 05:50:12;;;;;;;14.60;8.40;;;;;;;;;;5032723;28;20211;-78
2023/03/20 05:52:38;;;;;;;12.90;8.07;;;;;;;;;;5028632;28;20197;-78
2023/03/20 05:55:03;;;;;;;11.57;8.23;;;;;;;;;;5032506;28;21367;-78
2023/03/20 05:57:29;;;;;;;11.50;7.73;;;;;;;;;;5033495;28;20191;-78
2023/03/20 05:59:54;;;;;;;15.40;7.40;;;;;;;;;;5036512;28;20184;-79
2023/03/20 06:02:20;;;;;;;13.30;8.30;;;;;;;;;;5039139;28;20185;-79
2023/03/20 06:04:45;;;;;;;16.37;8.37;;;;;;;;;;5036150;28;20177;-78
2023/03/20 06:07:10;;;;;;;12.37;8.30;;;;;;;;;;5031539;28;20187;-79
2023/03/20 06:09:36;;;;;;;14.83;7.40;;;;;;;;;;5032986;28;20204;-78
2023/03/20 06:12:01;;;;;;;10.90;7.60;;;;;;;;;;5031612;28;20557;-78
2023/03/20 06:14:26;;;;;;;13.57;8.10;;;;;;;;;;5032164;28;20204;-78
2023/03/20 06:16:52;;;;;;;12.50;7.27;;;;;;;;;;5026115;28;20188;-79
2023/03/20 06:19:18;;;;;;;12.47;7.00;;;;;;;;;;5034094;28;20192;-79
2023/03/20 06:21:43;;;;;;;12.20;8.20;;;;;;;;;;5035550;28;20427;-79
2023/03/20 06:24:09;;;;;;;9.50;6.87;;;;;;;;;;5029058;28;20204;-76
2023/03/20 06:26:34;;;;;;;12.87;8.13;;;;;;;;;;5021588;28;20705;-80
2023/03/20 06:29:00;;;;;;;9.37;6.80;;;;;;;;;;5025648;28;20234;-80
2023/03/20 06:31:26;;;;;;;12.50;7.37;;;;;;;;;;5033006;28;20205;-80
2023/03/20 06:33:51;;;;;;;11.63;7.20;;;;;;;;;;5035489;28;20466;-81
2023/03/20 06:36:16;;;;;;;12.00;7.20;;;;;;;;;;5037069;28;20196;-81
2023/03/20 06:38:42;;;;;;;18.77;7.30;;;;;;;;;;5033780;28;20240;-80
2023/03/20 06:41:07;;;;;;;8.23;6.30;;;;;;;;;;5034989;28;20694;-81
2023/03/20 06:43:33;;;;;;;9.83;6.67;;;;;;;;;;5035798;28;20211;-85
2023/03/20 06:45:58;;;;;;;11.07;7.10;;;;;;;;;;5034866;28;20195;-78
2023/03/20 06:48:24;;;;;;;10.90;6.70;;;;;;;;;;5035622;28;20196;-79
2023/03/20 06:50:50;;;;;;;13.00;6.57;;;;;;;;;;5034145;28;20176;-79
2023/03/20 06:53:15;;;;;;;12.43;6.47;;;;;;;;;;5026301;28;20200;-80
2023/03/20 06:55:41;;;;;;;11.27;7.07;;;;;;;;;;5037219;28;20472;-80
2023/03/20 06:58:07;;;;;;;13.20;7.23;;;;;;;;;;5036128;28;20624;-80
2023/03/20 07:00:33;;;;;;;10.73;6.50;;;;;;;;;;5032172;28;20440;-80
2023/03/20 07:02:58;;;;;;;13.20;6.97;;;;;;;;;;5033997;28;20239;-80
2023/03/20 07:05:23;;;;;;;9.13;6.10;;;;;;;;;;5036653;28;20458;-79
2023/03/20 07:07:49;;;;;;;15.47;6.70;;;;;;;;;;5031328;28;20234;-80
2023/03/20 07:10:14;;;;;;;11.57;7.10;;;;;;;;;;5035465;28;20318;-80
2023/03/20 07:12:40;;;;;;;14.13;7.67;;;;;;;;;;5032921;28;20238;-80
2023/03/20 07:15:05;;;;;;;9.77;6.80;;;;;;;;;;5032540;28;20549;-80
2023/03/20 07:17:30;;;;;;;14.13;7.10;;;;;;;;;;5034768;28;20177;-78
2023/03/20 07:19:56;;;;;;;9.37;6.90;;;;;;;;;;5035618;28;20226;-75
2023/03/20 07:22:25;;;;;;;10.17;7.20;;;;;;;;;;5036528;28;20184;-76
2023/03/20 07:24:50;;;;;;;12.17;7.20;;;;;;;;;;5035850;28;20200;-76
2023/03/20 07:27:16;;;;;;;10.50;7.57;;;;;;;;;;5032371;28;20460;-76
2023/03/20 07:29:42;;;;;;;14.07;7.73;;;;;;;;;;5034437;28;20704;-76
2023/03/20 07:32:07;;;;;;;12.30;7.30;;;;;;;;;;5033983;28;20419;-76
2023/03/20 07:34:32;;;;;;;12.87;8.63;;;;;;;;;;5025341;28;20196;-75
2023/03/20 07:36:58;;;;;;;10.77;7.90;;;;;;;;;;5034589;28;20168;-76
2023/03/20 07:39:23;;;;;;;9.27;7.07;;;;;;;;;;5027386;28;20183;-76
2023/03/20 07:41:48;;;;;;;13.20;7.77;;;;;;;;;;5035020;28;20184;-76
2023/03/20 07:44:14;;;;;;;9.10;7.20;;;;;;;;;;5029551;28;20646;-79
2023/03/20 07:46:39;;;;;;;11.47;7.80;;;;;;;;;;5035794;28;20730;-76
2023/03/20 07:49:05;;;;;;;12.50;7.50;;;;;;;;;;5033757;28;20215;-80
2023/03/20 07:51:30;;;;;;;11.70;7.93;;;;;;;;;;5031865;28;20175;-79
2023/03/20 07:53:56;;;;;;;13.50;7.97;;;;;;;;;;5038472;28;20207;-79
2023/03/20 07:56:21;;;;;;;11.73;6.93;;;;;;;;;;5032320;28;20241;-79
2023/03/20 07:58:47;;;;;;;10.83;7.17;;;;;;;;;;5030962;28;20327;-79
2023/03/20 08:01:12;;;;;;;11.70;7.97;;;;;;;;;;5037526;28;20180;-79
2023/03/20 08:03:38;;;;;;;12.23;7.37;;;;;;;;;;5034209;28;20262;-80
2023/03/20 08:06:06;;;;;;;13.30;7.57;;;;;;;;;;5036523;28;20659;-80
2023/03/20 08:08:31;;;;;;;11.23;7.47;;;;;;;;;;5037772;28;20424;-80
2023/03/20 08:10:57;;;;;;;11.07;7.60;;;;;;;;;;5034144;28;20442;-77
2023/03/20 08:13:22;;;;;;;14.80;7.20;;;;;;;;;;5036080;28;20687;-79
2023/03/20 08:15:47;;;;;;;12.80;8.03;;;;;;;;;;5034383;28;20180;-78
2023/03/20 08:18:13;;;;;;;11.70;7.73;;;;;;;;;;5022119;28;20230;-78
2023/03/20 08:20:38;;;;;;;11.13;8.00;;;;;;;;;;5038999;28;20557;-78
2023/03/20 08:23:03;;;;;;;14.00;8.33;;;;;;;;;;5037031;28;20235;-77
2023/03/20 08:25:32;;;;;;;15.50;8.10;;;;;;;;;;5038277;28;20191;-76
2023/03/20 08:27:58;;;;;;;11.70;7.30;;;;;;;;;;5027512;28;20191;-81
2023/03/20 08:30:24;;;;;;;11.80;8.00;;;;;;;;;;5034008;28;20463;-80
2023/03/20 08:32:49;;;;;;;14.53;8.77;;;;;;;;;;5035195;28;20451;-81
2023/03/20 08:35:14;;;;;;;10.30;7.37;;;;;;;;;;5033583;28;20435;-81
2023/03/20 08:37:40;;;;;;;12.03;7.97;;;;;;;;;;5036403;28;20421;-81
2023/03/20 08:40:05;;;;;;;12.23;8.40;;;;;;;;;;5032951;28;20184;-81
2023/03/20 08:42:30;;;;;;;15.60;8.13;;;;;;;;;;5035282;28;20215;-81
2023/03/20 08:44:56;;;;;;;16.53;8.17;;;;;;;;;;5037477;28;20612;-81
2023/03/20 08:47:21;;;;;;;14.80;8.50;;;;;;;;;;5035834;28;20308;-81
2023/03/20 08:49:46;;;;;;;10.87;7.60;;;;;;;;;;5018643;28;20212;-81
2023/03/20 08:52:12;;;;;;;11.30;8.10;;;;;;;;;;5034099;28;20176;-81
2023/03/20 08:54:37;;;;;;;13.83;8.60;;;;;;;;;;5032697;28;20207;-82
2023/03/20 08:57:03;;;;;;;13.43;9.20;;;;;;;;;;5037526;28;20188;-81
2023/03/20 08:59:28;;;;;;;11.17;8.63;;;;;;;;;;5033947;28;20223;-81
2023/03/20 09:01:54;;;;;;;14.17;8.50;;;;;;;;;;5031718;28;20231;-81
2023/03/20 09:04:20;;;;;;;12.57;8.60;;;;;;;;;;5035818;28;20270;-82
2023/03/20 09:06:45;;;;;;;13.17;9.63;;;;;;;;;;5033365;28;20191;-82
2023/03/20 09:09:14;;;;;;;12.77;8.73;;;;;;;;;;5032615;28;20239;-83
2023/03/20 09:11:40;;;;;;;13.60;8.07;;;;;;;;;;5019474;28;20652;-81
2023/03/20 09:14:05;;;;;;;15.57;8.43;;;;;;;;;;5034134;28;20457;-81
2023/03/20 09:16:31;;;;;;;11.43;8.77;;;;;;;;;;5039343;28;20217;-82
2023/03/20 09:18:56;;;;;;;11.17;8.27;;;;;;;;;;5032368;28;20207;-81
2023/03/20 09:21:21;;;;;;;14.83;8.97;;;;;;;;;;5035594;28;20254;-82
2023/03/20 09:23:46;;;;;;;16.53;9.70;;;;;;;;;;5036222;28;20244;-81
2023/03/20 09:26:12;;;;;;;10.90;8.17;;;;;;;;;;5027650;28;20211;-81
2023/03/20 09:28:37;;;;;;;11.03;8.70;;;;;;;;;;5021918;28;20189;-81
2023/03/20 09:31:03;;;;;;;15.13;7.93;;;;;;;;;;5031939;28;20172;-81
2023/03/20 09:33:28;;;;;;;18.00;9.43;;;;;;;;;;5033481;28;20216;-81
2023/03/20 09:35:54;;;;;;;10.37;8.33;;;;;;;;;;5028647;28;20259;-81
2023/03/20 09:38:20;;;;;;;15.53;8.53;;;;;;;;;;5025545;28;20189;-81
2023/03/20 09:40:50;;;;;;;15.77;9.17;;;;;;;;;;5030142;28;20193;-81
2023/03/20 09:43:25;;;;;;;20.70;10.10;;;;;;;;;;5031363;28;20481;-82
2023/03/20 09:46:10;;;;;;;14.50;10.03;;;;;;;;;;5032703;28;20446;-81
2023/03/20 09:48:45;;;;;;;14.97;8.90;;;;;;;;;;5030485;28;20438;-81
2023/03/20 09:51:20;;;;;;;15.97;9.50;;;;;;;;;;5030141;28;20419;-82
2023/03/20 09:53:51;;;;;;;18.00;9.30;;;;;;;;;;5027654;28;20447;-81
2023/03/20 09:56:20;;;;;;;12.53;8.13;;;;;;;;;;5023061;28;20926;-82
2023/03/20 09:58:50;;;;;;;19.87;8.93;;;;;;;;;;5032603;28;20422;-82
2023/03/20 10:01:17;;;;;;;18.00;9.50;;;;;;;;;;5031628;28;20826;-82
2023/03/20 10:03:46;;;;;;;17.47;9.60;;;;;;;;;;5033386;28;20457;-82
2023/03/20 10:06:13;;;;;;;14.10;9.00;;;;;;;;;;5031583;28;20426;-81
2023/03/20 10:08:39;;;;;;;16.90;8.60;;;;;;;;;;5027468;28;20424;-82
2023/03/20 10:11:10;;;;;;;14.10;8.20;;;;;;;;;;5030481;28;20484;-82
2023/03/20 10:13:36;;;;;;;14.83;8.90;;;;;;;;;;5027078;28;20203;-82
2023/03/20 10:16:16;;;;;;;18.80;9.20;;;;;;;;;;5023076;28;20427;-83
2023/03/20 10:18:50;;;;;;;14.33;7.93;;;;;;;;;;5043680;28;20669;-83
2023/03/20 10:21:18;;;;;;;12.97;8.67;;;;;;;;;;5036100;28;20415;-82
2023/03/20 10:24:18;;;;;;;12.97;7.87;;;;;;;;;;5028690;28;20453;-82
2023/03/20 10:26:45;;;;;;;12.43;7.93;;;;;;;;;;5012957;28;20948;-82
2023/03/20 10:29:13;;;;;;;17.40;7.07;;;;;;;;;;5033313;28;20463;-82
2023/03/20 10:31:44;;;;;;;12.50;7.97;;;;;;;;;;5030553;28;20481;-82
2023/03/20 10:34:16;;;;;;;22.07;8.80;;;;;;;;;;5032053;28;20466;-82
2023/03/20 10:37:00;;;;;;;16.13;7.87;;;;;;;;;;5027169;28;20415;-82
2023/03/20 10:39:49;;;;;;;19.30;9.60;;;;;;;;;;5032144;28;20944;-82
2023/03/20 10:42:17;;;;;;;15.40;6.73;;;;;;;;;;5026796;28;20483;-82
2023/03/20 10:44:46;;;;;;;15.83;7.40;;;;;;;;;;5019600;28;20436;-83
2023/03/20 10:47:13;;;;;;;11.90;7.40;;;;;;;;;;5027180;28;20430;-82
2023/03/20 10:49:41;;;;;;;15.23;7.30;;;;;;;;;;5024908;28;20469;-82
2023/03/20 10:52:12;;;;;;;10.63;6.43;;;;;;;;;;5038019;28;20427;-83
2023/03/20 10:54:42;;;;;;;11.53;7.10;;;;;;;;;;5038497;28;20497;-83
2023/03/20 10:57:21;;;;;;;10.87;6.77;;;;;;;;;;5039027;28;20473;-83
2023/03/20 10:59:48;;;;;;;12.07;6.87;;;;;;;;;;5037957;28;20415;-83
2023/03/20 11:02:15;;;;;;;12.93;6.63;;;;;;;;;;5036943;28;20415;-82
2023/03/20 11:04:40;;;;;;;11.30;6.90;;;;;;;;;;5038148;28;20414;-83
2023/03/20 11:07:15;;;;;;;12.37;6.60;;;;;;;;;;5033710;28;20441;-82
2023/03/20 11:09:40;;;;;;;12.47;6.90;;;;;;;;;;5038884;28;20652;-82
2023/03/20 11:12:13;;;;;;;11.70;6.80;;;;;;;;;;5033170;28;20507;-81
2023/03/20 11:14:38;;;;;;;10.40;6.07;;;;;;;;;;5036013;28;20175;-80
2023/03/20 11:17:04;;;;;;;12.47;6.50;;;;;;;;;;5036321;28;20514;-80
2023/03/20 11:19:34;;;;;;;11.00;6.33;;;;;;;;;;5026853;28;20551;-80
2023/03/20 11:22:01;;;;;;;13.27;6.97;;;;;;;;;;5037193;28;20481;-80
2023/03/20 11:24:33;;;;;;;14.27;6.43;;;;;;;;;;5039681;28;20491;-80
2023/03/20 11:27:09;;;;;;;12.40;6.23;;;;;;;;;;5038057;28;20414;-80
2023/03/20 11:29:34;;;;;;;11.53;5.80;;;;;;;;;;5036206;28;21034;-80
2023/03/20 11:32:24;;;;;;;14.80;6.40;;;;;;;;;;5035656;28;20515;-80
2023/03/20 11:34:50;;;;;;;10.17;6.10;;;;;;;;;;5037632;28;20476;-81
2023/03/20 11:37:27;;;;;;;14.47;6.70;;;;;;;;;;5033653;28;20430;-80
2023/03/20 11:39:58;;;;;;;11.73;6.63;;;;;;;;;;5038026;28;20180;-81
2023/03/20 11:42:29;;;;;;;12.90;6.83;;;;;;;;;;5040395;28;20472;-80
2023/03/20 11:45:02;;;;;;;10.77;6.77;;;;;;;;;;5038896;28;20938;-80
2023/03/20 11:47:30;;;;;;;10.80;6.93;;;;;;;;;;5022494;28;20438;-80
2023/03/20 11:49:57;;;;;;;10.33;6.03;;;;;;;;;;5021583;28;20927;-80
2023/03/20 11:52:33;;;;;;;12.40;6.40;;;;;;;;;;5037314;28;20417;-80
2023/03/20 11:55:00;;;;;;;12.27;6.73;;;;;;;;;;5035767;28;20842;-81
2023/03/20 11:57:28;;;;;;;8.93;5.30;;;;;;;;;;5039093;28;20479;-80
2023/03/20 11:59:54;;;;;;;12.53;6.67;;;;;;;;;;5038729;28;20417;-80
2023/03/20 12:02:21;;;;;;;13.43;6.80;;;;;;;;;;5040185;28;20473;-81
2023/03/20 12:04:46;;;;;;;9.70;6.03;;;;;;;;;;5036922;28;20241;-80
2023/03/20 12:07:15;;;;;;;14.57;7.30;;;;;;;;;;5020457;28;20439;-80
2023/03/20 12:09:53;;;;;;;12.03;6.53;;;;;;;;;;5037651;28;20192;-81
2023/03/20 12:12:18;;;;;;;9.50;5.93;;;;;;;;;;5035087;28;20456;-81
2023/03/20 12:14:43;;;;;;;12.57;6.27;;;;;;;;;;5036340;28;20417;-81
2023/03/20 12:17:14;;;;;;;9.43;6.10;;;;;;;;;;5035710;28;20195;-80
2023/03/20 12:19:41;;;;;;;12.77;6.03;;;;;;;;;;5036317;28;20214;-80
2023/03/20 12:22:13;;;;;;;9.13;5.37;;;;;;;;;;5036950;28;21135;-80
2023/03/20 12:24:43;;;;;;;11.83;6.80;;;;;;;;;;5034235;28;20539;-81
2023/03/20 12:27:29;;;;;;;12.73;5.33;;;;;;;;;;5052308;28;20494;-81
2023/03/20 12:30:02;;;;;;;14.97;5.67;;;;;;;;;;5035873;28;20453;-81
2023/03/20 12:32:27;;;;;;;11.33;5.23;;;;;;;;;;5039825;28;20832;-80
2023/03/20 12:34:57;;;;;;;8.47;5.10;;;;;;;;;;5034009;28;20418;-81
2023/03/20 12:37:23;;;;;;;9.53;5.20;;;;;;;;;;5037935;28;20670;-79
2023/03/20 12:39:51;;;;;;;9.00;4.97;;;;;;;;;;5037150;28;20448;-80
2023/03/20 12:42:28;;;;;;;8.77;4.77;;;;;;;;;;5039259;28;20184;-80
2023/03/20 12:45:00;;;;;;;9.63;4.90;;;;;;;;;;5040176;28;20422;-80
2023/03/20 12:47:44;;;;;;;10.10;4.67;;;;;;;;;;5043249;28;20414;-79
2023/03/20 12:50:28;;;;;;;7.97;4.60;;;;;;;;;;5040836;28;20465;-79
2023/03/20 12:53:01;;;;;;;8.10;3.93;;;;;;;;;;5039126;28;20434;-79
2023/03/20 12:55:28;;;;;;;17.33;3.30;;;;;;;;;;5031939;28;20665;-81
2023/03/20 12:58:12;;;;;;;10.57;4.00;;;;;;;;;;5031597;28;20792;-79
2023/03/20 13:00:53;;;;;;;5.57;2.53;;;;;;;;;;5037261;28;20441;-79
2023/03/20 13:03:30;;;;;;;5.17;3.20;;;;;;;;;;5036263;28;20455;-80
2023/03/20 13:06:19;;;;;;;6.70;2.70;;;;;;;;;;5038758;28;20894;-79
2023/03/20 13:08:44;;;;;;;13.63;3.30;;;;;;;;;;5028987;28;20535;-80
2023/03/20 13:11:15;;;;;;;8.17;3.33;;;;;;;;;;5038108;28;20518;-79
2023/03/20 13:13:41;;;;;;;16.23;4.90;;;;;;;;;;5035035;28;20202;-79
2023/03/20 13:16:12;;;;;;;8.27;3.60;;;;;;;;;;5036867;28;20419;-79
2023/03/20 13:18:40;;;;;;;8.03;3.43;;;;;;;;;;5040393;28;20712;-79
2023/03/20 13:21:09;;;;;;;7.30;2.90;;;;;;;;;;5035663;28;20442;-79
2023/03/20 13:23:34;;;;;;;8.60;3.40;;;;;;;;;;5037807;28;21360;-79
2023/03/20 13:26:16;;;;;;;9.73;3.50;;;;;;;;;;5031996;28;20466;-80
2023/03/20 13:28:44;;;;;;;12.60;4.27;;;;;;;;;;5039365;28;20176;-81
2023/03/20 13:31:28;;;;;;;12.33;4.30;;;;;;;;;;5037473;28;20903;-80
2023/03/20 13:34:20;;;;;;;8.80;4.13;;;;;;;;;;5038040;28;20466;-81
2023/03/20 13:36:51;;;;;;;11.90;4.20;;;;;;;;;;5037482;28;20439;-81
2023/03/20 13:39:17;;;;;;;12.33;5.70;;;;;;;;;;5037400;28;20433;-80
2023/03/20 13:41:43;;;;;;;6.93;4.37;;;;;;;;;;5039830;28;20423;-79
2023/03/20 13:44:10;;;;;;;10.47;5.33;;;;;;;;;;5041268;28;20206;-79
2023/03/20 13:46:56;;;;;;;8.30;5.00;;;;;;;;;;5024258;28;20913;-78
2023/03/20 13:49:30;;;;;;;11.43;5.83;;;;;;;;;;5038465;28;20469;-78
2023/03/20 13:52:06;;;;;;;12.43;6.00;;;;;;;;;;5036017;28;20520;-78
2023/03/20 13:54:32;;;;;;;9.27;6.00;;;;;;;;;;5037973;28;20448;-78
2023/03/20 13:57:29;;;;;;;12.20;6.53;;;;;;;;;;5034616;28;20423;-78
2023/03/20 14:00:00;;;;;;;10.43;5.33;;;;;;;;;;4986081;28;20180;-78
2023/03/20 14:02:29;;;;;;;7.93;5.23;;;;;;;;;;5038138;28;20442;-78
2023/03/20 14:05:09;;;;;;;11.20;5.70;;;;;;;;;;5039196;28;20423;-78
2023/03/20 14:07:36;;;;;;;9.47;5.83;;;;;;;;;;5034911;28;20974;-78
2023/03/20 14:10:19;;;;;;;13.23;5.90;;;;;;;;;;5038008;28;20463;-78
2023/03/20 14:12:47;;;;;;;11.80;6.33;;;;;;;;;;5037002;28;20443;-78
2023/03/20 14:15:12;;;;;;;10.33;6.60;;;;;;;;;;5034207;28;20483;-78
2023/03/20 14:17:42;;;;;;;11.43;6.17;;;;;;;;;;5034353;28;20986;-77
2023/03/20 14:20:12;;;;;;;11.50;6.00;;;;;;;;;;5036132;28;20208;-78
2023/03/20 14:22:39;;;;;;;8.07;4.53;;;;;;;;;;5038366;28;20455;-78
2023/03/20 14:25:07;;;;;;;9.13;5.40;;;;;;;;;;5038979;28;20427;-78
2023/03/20 14:27:51;;;;;;;11.70;5.00;;;;;;;;;;5036057;28;20423;-79
2023/03/20 14:30:29;;;;;;;10.73;4.30;;;;;;;;;;5021592;28;20466;-78
2023/03/20 14:32:59;;;;;;;8.33;4.23;;;;;;;;;;5033786;28;20459;-78
2023/03/20 14:35:26;;;;;;;10.80;4.77;;;;;;;;;;5038455;28;20531;-78
2023/03/20 14:37:57;;;;;;;6.87;4.10;;;;;;;;;;5021125;28;20426;-77
2023/03/20 14:40:27;;;;;;;8.60;3.93;;;;;;;;;;5037535;28;20500;-78
2023/03/20 14:43:02;;;;;;;7.47;4.30;;;;;;;;;;5037545;28;20471;-78
2023/03/20 14:45:28;;;;;;;11.87;4.43;;;;;;;;;;5037295;28;20476;-78